Etusivu
METAR-TAF:

METAR-TAF

Lentoasemat :

Prinsessa Julianan lentoasema

Sint Maarten, Alankomaiden Antillit

Leveyspiiri: 18-03N, Pituuspiiri: 063-07W, korkeus merenpinnasta: 4 m

Tämänhetkinen sää

Tämä raportti tehtiin 41 minuuttia sitten, kello 17.00 UTC
Tuuli 10 kn idästä/kaakosta, vaihdellen idän ja kaakon välillä
Lämpötila 31°C
Kosteus 71%
Ilmanpaine 1016 hPa
Näkyvyys 10 km tai enemmän
Hajanaisia pilviä 1700 ft:n korkeudessa
heikkoja vesikuuroja

METAR: TNCM 051700Z 11010KT 080V140 9999 -SHRA SCT017 31/25 Q1016 TEMPO SHRA

Aika: 13:41 (17:41 UTC)

Sääennuste

Tämä raportti tehtiin 3 tuntia ja 23 minuuttia sitten, kello 14.18 UTC
Ennuste voimassa 05. päivästä klo 14 UTC - 06. päivään klo 12 UTC
Tuuli 12 kn idästä/kaakosta
Näkyvyys: 10 km
Hajanaisia pilviä 1800 ft:n korkeudessa
sadekuuroja näköpiirissä

TAF: TNCM 051418Z 0514/0612 11012KT P6SM VCSH SCT018

Säähavainnot ja -ennusteet yli 4000 lentoasemalta (METAR- ja TAF-raportit).

Käytössä olevat sääasemat on merkitty karttaan keltaisilla ja punaisilla pisteillä.

Aseta hiiri pisteen päälle nähdäksesi sääaseman nimen.

Klikkaa sitten nähdäksesi säähavainnot ja -ennusteet.

Kartan vaihtaminen: klikkaa mustalla rastilla varustettuja vihreitä pisteitä, niin voit zoomata sisään; viivalla varustettua vihreää pistettä, niin voit zoomata ulos tai vihreitä nuolia, niin pääset viereisille kartoille.


METAR-TAF: